GBYD/BJL METAR and TAF weather

Enter ICAO airport designator
Station Type Date Time Source
GBYD METAR 2018/12/12 19:00 UTC NOAA

GBYD 121900Z 21005KT CAVOK 25/16 Q1011


Station Type Date Time Source
GBYD Decoded METAR 2018/12/12 19:00 UTC NOAA

Banjul / Yundum, Gambia, The (GBYD) 13-21N 016-48W 36M
Dec 12, 2018 - 02:00 PM EST / 2018.12.12 1900 UTC
Wind: from the SSW (210 degrees) at 6 MPH (5 KT):0
Visibility: greater than 7 mile(s):0
Temperature: 77 F (25 C)
Dew Point: 60 F (16 C)
Relative Humidity: 57%
Pressure (altimeter): 29.85 in. Hg (1011 hPa)
ob: GBYD 121900Z 21005KT CAVOK 25/16 Q1011
cycle: 19

Station Type Date Time Source
GBYD TAF 2018/12/12 18:27 UTC NOAA

TAF TAF GBYD 121730Z 1218/1324 28006KT CAVOK


Example: see airport list